createdAt,value
2024-05-09T00:00:39.977Z,67550.91
2024-05-09T00:03:26.650Z,67531.88
2024-05-09T00:06:16.246Z,67543.63
2024-05-09T00:09:01.375Z,67539.16
2024-05-09T00:11:47.091Z,67545.47
2024-05-09T00:14:32.483Z,67547.00
2024-05-09T00:17:17.943Z,67534.28
2024-05-09T00:20:09.069Z,67533.88
2024-05-09T00:22:59.126Z,67526.03
2024-05-09T00:25:45.459Z,67530.75
2024-05-09T00:28:30.716Z,67516.53
2024-05-09T00:31:16.433Z,67528.91
2024-05-09T00:34:01.840Z,67519.72
2024-05-09T00:36:47.466Z,67513.72
2024-05-09T00:39:32.592Z,67522.34
2024-05-09T00:42:18.040Z,67504.44
2024-05-09T00:45:03.618Z,67523.63
2024-05-09T00:47:49.517Z,67536.19
2024-05-09T00:50:38.172Z,67529.97
2024-05-09T00:53:24.749Z,67519.53
2024-05-09T00:56:11.957Z,67520.44
2024-05-09T00:58:57.338Z,67493.56
2024-05-09T01:01:43.439Z,67520.13
2024-05-09T01:04:28.926Z,67521.41
2024-05-09T01:07:14.602Z,67505.72
2024-05-09T01:10:00.035Z,67514.69
2024-05-09T01:12:45.549Z,67517.47
2024-05-09T01:15:30.903Z,67512.28
2024-05-09T01:18:16.461Z,67500.69
2024-05-09T01:21:02.191Z,67487.97
2024-05-09T01:23:47.869Z,67498.84
2024-05-09T01:26:33.323Z,67505.72
2024-05-09T01:29:19.006Z,67507.78
2024-05-09T01:32:05.086Z,67503.09
2024-05-09T01:34:50.587Z,67512.28
2024-05-09T01:37:36.057Z,67505.56
2024-05-09T01:40:28.656Z,67491.34
2024-05-09T01:43:20.798Z,67503.31
2024-05-09T01:46:06.127Z,67495.09
2024-05-09T01:48:51.610Z,67506.66
2024-05-09T01:51:36.701Z,67502.19
2024-05-09T01:54:22.382Z,67497.72
2024-05-09T01:57:07.998Z,67494.53
2024-05-09T01:59:53.603Z,67490.22
2024-05-09T02:02:38.900Z,67499.25
2024-05-09T02:05:24.591Z,67489.72
2024-05-09T02:08:18.659Z,67480.53
2024-05-09T02:11:04.736Z,67485.00
2024-05-09T02:13:50.235Z,67470.31
2024-05-09T02:16:35.724Z,67479.41
2024-05-09T02:19:21.013Z,67491.00
2024-05-09T02:22:06.755Z,67473.81
2024-05-09T02:24:52.028Z,67491.97
2024-05-09T02:27:37.919Z,67478.47
2024-05-09T02:30:30.703Z,67496.03
2024-05-09T02:33:24.045Z,67488.22
2024-05-09T02:36:10.407Z,67484.84
2024-05-09T02:38:56.007Z,67489.31
2024-05-09T02:41:41.529Z,67471.19
2024-05-09T02:44:27.064Z,67479.41
2024-05-09T02:47:12.892Z,67477.72
2024-05-09T02:49:58.545Z,67478.13
2024-05-09T02:52:44.388Z,67478.84
2024-05-09T02:55:29.948Z,67460.78
2024-05-09T02:58:15.407Z,67451.03
2024-05-09T03:01:01.249Z,67459.66
2024-05-09T03:03:48.513Z,67461.91
2024-05-09T03:06:34.107Z,67461.91
2024-05-09T03:09:19.414Z,67445.81
2024-05-09T03:12:05.192Z,67456.88
2024-05-09T03:14:50.914Z,67458.13
2024-05-09T03:17:36.908Z,67465.59
2024-05-09T03:20:27.596Z,67460.94
2024-05-09T03:23:18.340Z,67465.28
2024-05-09T03:26:03.738Z,67466.22
2024-05-09T03:28:49.518Z,67453.28
2024-05-09T03:31:34.709Z,67453.09
2024-05-09T03:34:20.501Z,67458.13
2024-05-09T03:37:06.018Z,67411.53
2024-05-09T03:39:51.366Z,67456.06
2024-05-09T03:42:41.786Z,67454.94
2024-05-09T03:45:27.016Z,67418.56
2024-05-09T03:48:13.220Z,67454.06
2024-05-09T03:50:58.739Z,67449.56
2024-05-09T03:53:44.159Z,67445.09
2024-05-09T03:56:29.730Z,67448.44
2024-05-09T03:59:15.452Z,67448.44
2024-05-09T04:02:01.042Z,67437.97
2024-05-09T04:04:46.501Z,67440.59
2024-05-09T04:07:33.367Z,67437.41
2024-05-09T04:10:27.688Z,67433.13
2024-05-09T04:13:17.931Z,67444.28
2024-05-09T04:16:03.767Z,67435.34
2024-05-09T04:18:49.710Z,67437.41
2024-05-09T04:21:35.085Z,67444.13
2024-05-09T04:24:20.398Z,67434.63
2024-05-09T04:27:05.873Z,67447.50
2024-05-09T04:29:51.447Z,67427.91
2024-05-09T04:32:36.616Z,67418.81
2024-05-09T04:35:22.583Z,67424.72
2024-05-09T04:38:11.423Z,67433.88
2024-05-09T04:40:56.844Z,67431.44
2024-05-09T04:43:42.495Z,67434.44
2024-05-09T04:46:28.071Z,67431.25
2024-05-09T04:49:14.339Z,67435.75
2024-05-09T04:52:02.667Z,67435.19
2024-05-09T04:54:48.217Z,67435.34
2024-05-09T04:57:34.042Z,67455.75
2024-05-09T05:00:28.130Z,67443.16
2024-05-09T05:03:18.254Z,67455.91
2024-05-09T05:06:04.364Z,67458.56
2024-05-09T05:08:49.823Z,67461.91
2024-05-09T05:11:35.484Z,67482.75
2024-05-09T05:14:20.850Z,67481.66
2024-05-09T05:17:06.371Z,67494.53
2024-05-09T05:19:51.928Z,67499.97
2024-05-09T05:22:37.461Z,67507.00
2024-05-09T05:25:22.629Z,67499.72
2024-05-09T05:28:08.731Z,67517.88
2024-05-09T05:30:54.490Z,67515.63
2024-05-09T05:33:39.824Z,67525.72
2024-05-09T05:36:25.264Z,67521.00
2024-05-09T05:39:10.855Z,67535.38
2024-05-09T05:41:56.567Z,67546.44
2024-05-09T05:44:42.201Z,67554.84
2024-05-09T05:47:27.932Z,67561.88
2024-05-09T05:50:23.770Z,67563.56
2024-05-09T05:53:13.467Z,67568.28
2024-05-09T05:55:58.876Z,67568.41
2024-05-09T05:58:44.420Z,67573.06
2024-05-09T06:01:30.064Z,67582.88
2024-05-09T06:04:15.773Z,67568.03
2024-05-09T06:07:01.036Z,67565.06
2024-05-09T06:09:47.602Z,67576.84
2024-05-09T06:12:34.504Z,67591.25
2024-05-09T06:15:19.838Z,67588.59
2024-05-09T06:18:10.195Z,67584.88
2024-05-09T06:20:56.941Z,67608.38
2024-05-09T06:23:50.044Z,67614.53
2024-05-09T06:26:35.759Z,67618.31
2024-05-09T06:29:21.452Z,67604.88
2024-05-09T06:32:07.147Z,67636.81
2024-05-09T06:34:52.740Z,67653.06
2024-05-09T06:37:38.479Z,67656.03
2024-05-09T06:40:29.254Z,67679.22
2024-05-09T06:43:20.134Z,67669.31
2024-05-09T06:46:05.535Z,67656.28
2024-05-09T06:48:51.521Z,67682.34
2024-05-09T06:51:41.258Z,67707.44
2024-05-09T06:54:26.878Z,67700.88
2024-05-09T06:57:12.001Z,67710.56
2024-05-09T07:00:01.360Z,67725.53
2024-05-09T07:02:46.874Z,67746.84
2024-05-09T07:05:33.401Z,67750.63
2024-05-09T07:08:19.565Z,67745.59
2024-05-09T07:11:05.136Z,67752.47
2024-05-09T07:13:50.366Z,67736.34
2024-05-09T07:16:35.993Z,67754.41
2024-05-09T07:19:21.554Z,67782.44
2024-05-09T07:22:07.135Z,67930.81
2024-05-09T07:24:54.202Z,68149.03
2024-05-09T07:27:39.833Z,68374.50
2024-05-09T07:30:32.829Z,68553.50
2024-05-09T07:33:22.469Z,68703.06
2024-05-09T07:36:09.506Z,68818.84
2024-05-09T07:38:54.970Z,68789.22
2024-05-09T07:41:40.822Z,68852.19
2024-05-09T07:44:26.279Z,68980.97
2024-05-09T07:48:27.578Z,69061.13
2024-05-09T07:53:36.368Z,69026.34
2024-05-09T07:56:12.642Z,69116.66
2024-05-09T07:58:58.202Z,69122.00
2024-05-09T08:01:43.740Z,69095.69
2024-05-09T08:04:29.426Z,69186.31
2024-05-09T08:07:15.340Z,69115.34
2024-05-09T08:10:00.911Z,69003.03
2024-05-09T08:12:46.149Z,68987.91
2024-05-09T08:15:31.559Z,68921.59
2024-05-09T08:18:17.160Z,68944.31
2024-05-09T08:21:02.610Z,68825.03
2024-05-09T08:23:47.799Z,68803.44
2024-05-09T08:26:33.194Z,68720.56
2024-05-09T08:29:18.661Z,68673.13
2024-05-09T08:32:05.920Z,68597.91
2024-05-09T08:34:51.332Z,68576.63
2024-05-09T08:37:39.891Z,68550.41
2024-05-09T08:40:33.417Z,68507.25
2024-05-09T08:43:24.422Z,68436.63
2024-05-09T08:46:13.121Z,68373.50
2024-05-09T08:48:59.745Z,68279.88
2024-05-09T08:51:46.814Z,68310.88
2024-05-09T08:54:32.229Z,68284.50
2024-05-09T08:57:19.137Z,68196.56
2024-05-09T09:00:10.107Z,68184.88
2024-05-09T09:03:00.294Z,68191.22
2024-05-09T09:06:07.822Z,68223.03
2024-05-09T09:08:54.782Z,68227.69
2024-05-09T09:11:39.939Z,68240.19
2024-05-09T09:14:25.491Z,68212.06
2024-05-09T09:17:17.165Z,68200.81
2024-05-09T09:20:02.962Z,68254.69
2024-05-09T09:22:48.293Z,68293.38
2024-05-09T09:25:33.604Z,68287.47
2024-05-09T09:28:22.756Z,68293.56
2024-05-09T09:31:08.010Z,68339.84
2024-05-09T09:33:54.027Z,68367.31
2024-05-09T09:36:40.143Z,68340.13
2024-05-09T09:39:28.628Z,68361.66
2024-05-09T09:42:22.772Z,68374.66
2024-05-09T09:45:08.339Z,68418.44
2024-05-09T09:47:57.240Z,68374.50
2024-05-09T09:50:43.400Z,68307.19
2024-05-09T09:53:29.353Z,68289.19
2024-05-09T09:56:18.081Z,68287.91
2024-05-09T09:59:04.694Z,68333.53
2024-05-09T10:01:50.345Z,68371.09
2024-05-09T10:04:36.706Z,68357.31
2024-05-09T10:07:22.784Z,68379.00
2024-05-09T10:10:11.003Z,68330.41
2024-05-09T10:13:06.365Z,68318.72
2024-05-09T10:15:53.971Z,68343.66
2024-05-09T10:18:40.767Z,68361.53
2024-05-09T10:21:27.094Z,68388.59
2024-05-09T10:24:12.864Z,68393.38
2024-05-09T10:26:58.515Z,68435.38
2024-05-09T10:29:53.785Z,68443.94
2024-05-09T10:32:40.701Z,68434.50
2024-05-09T10:35:26.912Z,68465.25
2024-05-09T10:38:12.583Z,68480.75
2024-05-09T10:41:00.022Z,68461.84
2024-05-09T10:43:45.641Z,68461.59
2024-05-09T10:46:31.296Z,68461.44
2024-05-09T10:49:17.091Z,68475.53
2024-05-09T10:52:03.855Z,68508.38
2024-05-09T10:54:50.176Z,68535.72
2024-05-09T10:57:40.738Z,68559.56
2024-05-09T11:00:36.120Z,68515.28
2024-05-09T11:03:26.088Z,68509.50
2024-05-09T11:06:11.618Z,68469.63
2024-05-09T11:08:57.630Z,68445.78
2024-05-09T11:11:43.244Z,68440.59
2024-05-09T11:14:28.459Z,68449.75
2024-05-09T11:17:13.845Z,68437.91
2024-05-09T11:20:00.412Z,68446.34
2024-05-09T11:22:45.910Z,68485.81
2024-05-09T11:25:33.229Z,68486.94
2024-05-09T11:28:20.168Z,68528.41
2024-05-09T11:31:07.907Z,68571.25
2024-05-09T11:33:54.766Z,68571.13
2024-05-09T11:36:40.408Z,68570.84
2024-05-09T11:39:27.476Z,68581.44
2024-05-09T11:42:13.075Z,68566.06
2024-05-09T11:44:58.530Z,68614.84
2024-05-09T11:47:44.332Z,68613.72
2024-05-09T11:50:32.987Z,68604.69
2024-05-09T11:53:20.707Z,68601.28
2024-05-09T11:56:06.418Z,68594.69
2024-05-09T11:58:52.283Z,68565.34
2024-05-09T12:01:37.689Z,68519.38
2024-05-09T12:04:23.336Z,68489.50
2024-05-09T12:07:12.747Z,68486.66
2024-05-09T12:09:59.808Z,68480.75
2024-05-09T12:12:45.527Z,68480.63
2024-05-09T12:15:31.086Z,68468.34
2024-05-09T12:18:16.727Z,68449.59
2024-05-09T12:21:02.769Z,68420.72
2024-05-09T12:23:48.332Z,68411.28
2024-05-09T12:26:33.514Z,68403.94
2024-05-09T12:29:18.949Z,68411.84
2024-05-09T12:32:04.870Z,68411.44
2024-05-09T12:34:50.506Z,68350.28
2024-05-09T12:37:36.130Z,68348.19
2024-05-09T12:40:30.702Z,68254.13
2024-05-09T12:43:20.569Z,68264.69
2024-05-09T12:46:06.220Z,68281.84
2024-05-09T12:48:52.090Z,68293.69
2024-05-09T12:51:38.348Z,68306.34
2024-05-09T12:54:23.738Z,68283.25
2024-05-09T12:57:09.720Z,68282.69
2024-05-09T12:59:56.019Z,68285.66
2024-05-09T13:02:41.714Z,68313.81
2024-05-09T13:05:27.156Z,68320.84
2024-05-09T13:08:13.559Z,68305.22
2024-05-09T13:10:59.248Z,68297.34
2024-05-09T13:13:44.868Z,68310.16
2024-05-09T13:16:31.577Z,68300.16
2024-05-09T13:19:17.395Z,68299.75
2024-05-09T13:22:02.979Z,68321.72
2024-05-09T13:24:48.343Z,68337.06
2024-05-09T13:27:34.667Z,68328.03
2024-05-09T13:30:26.570Z,68401.69
2024-05-09T13:33:20.994Z,68459.31
2024-05-09T13:36:07.178Z,68483.56
2024-05-09T13:38:52.639Z,68429.44
2024-05-09T13:41:38.110Z,68452.41
2024-05-09T13:44:23.600Z,68438.72
2024-05-09T13:47:09.361Z,68389.72
2024-05-09T13:49:54.779Z,68459.75
2024-05-09T13:52:40.466Z,68463.84
2024-05-09T13:55:26.241Z,68463.69
2024-05-09T13:58:11.910Z,68438.47
2024-05-09T14:00:57.192Z,68399.16
2024-05-09T14:03:42.830Z,68435.66
2024-05-09T14:06:28.373Z,68419.16
2024-05-09T14:09:13.948Z,68425.38
2024-05-09T14:11:59.672Z,68415.38
2024-05-09T14:14:45.343Z,68409.56
2024-05-09T14:17:31.020Z,68420.44
2024-05-09T14:20:23.886Z,68416.34
2024-05-09T14:23:18.155Z,68408.44
2024-05-09T14:26:03.367Z,68400.00
2024-05-09T14:28:48.687Z,68397.34
2024-05-09T14:31:35.536Z,68338.59
2024-05-09T14:34:22.896Z,68355.06
2024-05-09T14:37:08.548Z,68368.03
2024-05-09T14:39:54.072Z,68362.81
2024-05-09T14:42:39.965Z,68367.00
2024-05-09T14:45:25.296Z,68353.25
2024-05-09T14:48:12.142Z,68392.69
2024-05-09T14:50:57.472Z,68399.84
2024-05-09T14:53:43.277Z,68402.97
2024-05-09T14:56:29.250Z,68419.44
2024-05-09T14:59:14.472Z,68414.66
2024-05-09T15:02:00.295Z,68421.97
2024-05-09T15:04:45.836Z,68441.56
2024-05-09T15:07:31.323Z,68437.75
2024-05-09T15:10:26.225Z,68426.06
2024-05-09T15:13:17.528Z,68430.31
2024-05-09T15:16:02.978Z,68436.63
2024-05-09T15:18:48.472Z,68441.69
2024-05-09T15:21:33.966Z,68438.72
2024-05-09T15:24:19.469Z,68434.09
2024-05-09T15:27:04.776Z,68436.22
2024-05-09T15:29:50.046Z,68408.03
2024-05-09T15:32:35.742Z,68440.16
2024-05-09T15:35:21.520Z,68448.88
2024-05-09T15:40:52.768Z,68429.44
2024-05-09T15:43:38.406Z,68429.16
2024-05-09T15:46:24.134Z,68411.44
2024-05-09T15:49:10.033Z,68434.50
2024-05-09T15:51:55.479Z,68440.84
2024-05-09T15:54:40.764Z,68426.50
2024-05-09T15:57:26.317Z,68401.28
2024-05-09T16:00:21.863Z,68421.28
2024-05-09T16:03:15.099Z,68417.19
2024-05-09T16:06:01.346Z,68402.13
2024-05-09T16:08:46.706Z,68403.38
2024-05-09T16:11:32.339Z,68410.88
2024-05-09T16:14:19.018Z,68403.81
2024-05-09T16:17:05.168Z,68397.59
2024-05-09T16:19:50.438Z,68397.59
2024-05-09T16:22:35.463Z,68393.38
2024-05-09T16:25:20.856Z,68394.78
2024-05-09T16:28:09.729Z,68379.88
2024-05-09T16:30:56.124Z,68364.50
2024-05-09T16:33:41.894Z,68370.56
2024-05-09T16:36:27.289Z,68377.06
2024-05-09T16:39:12.708Z,68367.47
2024-05-09T16:41:57.894Z,68370.13
2024-05-09T16:44:43.488Z,68350.97
2024-05-09T16:47:29.547Z,68351.53
2024-05-09T16:50:19.089Z,68350.84
2024-05-09T16:53:08.662Z,68330.56
2024-05-09T16:55:54.806Z,68331.13
2024-05-09T16:58:40.459Z,68331.13
2024-05-09T17:01:26.291Z,68333.38
2024-05-09T17:04:11.744Z,68334.50
2024-05-09T17:06:57.271Z,68323.25
2024-05-09T17:09:42.592Z,68310.88
2024-05-09T17:12:27.900Z,68293.00
2024-05-09T17:15:13.871Z,68271.16
2024-05-09T17:17:59.653Z,68266.09
2024-05-09T17:20:45.066Z,68272.97
2024-05-09T17:23:31.854Z,68262.41
2024-05-09T17:26:18.819Z,68258.34
2024-05-09T17:29:05.381Z,68245.69
2024-05-09T17:31:51.589Z,68257.22
2024-05-09T17:34:37.425Z,68245.53
2024-05-09T17:37:22.961Z,68242.16
2024-05-09T17:40:16.614Z,68248.06
2024-05-09T17:43:03.392Z,68236.66
2024-05-09T17:45:49.104Z,68211.78
2024-05-09T17:48:35.031Z,68234.16
2024-05-09T17:51:20.594Z,68240.19
2024-05-09T17:54:06.144Z,68241.59
2024-05-09T17:56:51.766Z,68232.03
2024-05-09T17:59:37.065Z,68241.44
2024-05-09T18:02:22.807Z,68228.94
2024-05-09T18:05:08.989Z,68256.22
2024-05-09T18:07:54.871Z,68272.53
2024-05-09T18:10:41.383Z,68242.72
2024-05-09T18:13:27.445Z,68231.47
2024-05-09T18:16:13.634Z,68243.13
2024-05-09T18:18:59.058Z,68222.19
2024-05-09T18:21:44.616Z,68238.22
2024-05-09T18:24:30.058Z,68230.06
2024-05-09T18:27:15.842Z,68173.09
2024-05-09T18:30:01.206Z,68169.00
2024-05-09T18:32:46.800Z,68170.13
2024-05-09T18:35:32.365Z,68169.69
2024-05-09T18:38:19.042Z,68167.03
2024-05-09T18:41:05.097Z,68175.75
2024-05-09T18:43:51.045Z,68177.28
2024-05-09T18:46:36.476Z,68156.75
2024-05-09T18:49:22.004Z,68167.16
2024-05-09T18:52:07.491Z,68162.41
2024-05-09T18:54:52.862Z,68165.06
2024-05-09T18:57:38.316Z,68149.47
2024-05-09T19:00:33.231Z,68146.66
2024-05-09T19:03:22.620Z,68121.75
2024-05-09T19:06:09.564Z,68111.22
2024-05-09T19:08:54.953Z,68107.44
2024-05-09T19:11:40.920Z,68099.09
2024-05-09T19:14:26.143Z,68116.44
2024-05-09T19:17:11.801Z,68079.31
2024-05-09T19:19:57.513Z,68074.66
2024-05-09T19:22:50.803Z,68067.50
2024-05-09T19:25:36.680Z,68055.97
2024-05-09T19:28:22.236Z,68103.75
2024-05-09T19:31:13.970Z,68074.50
2024-05-09T19:33:59.141Z,68095.88
2024-05-09T19:36:44.881Z,68095.72
2024-05-09T19:39:30.086Z,68083.09
2024-05-09T19:42:15.666Z,68081.25
2024-05-09T19:45:01.198Z,68071.44
2024-05-09T19:47:47.165Z,68058.78
2024-05-09T19:50:41.683Z,68068.19
2024-05-09T19:53:29.612Z,68043.31
2024-05-09T19:56:15.303Z,68084.63
2024-05-09T19:59:00.998Z,68082.38
2024-05-09T20:01:56.238Z,68075.78
2024-05-09T20:04:45.712Z,68073.13
2024-05-09T20:07:33.224Z,68064.69
2024-05-09T20:10:23.915Z,68064.69
2024-05-09T20:13:15.048Z,68024.78
2024-05-09T20:16:01.488Z,68038.69
2024-05-09T20:18:47.202Z,68037.00
2024-05-09T20:21:32.625Z,68021.41
2024-05-09T20:24:18.201Z,68010.00
2024-05-09T20:27:03.877Z,68020.53
2024-05-09T20:29:49.536Z,67999.50
2024-05-09T20:32:35.045Z,68008.72
2024-05-09T20:35:20.813Z,67996.38
2024-05-09T20:38:06.219Z,68000.28
2024-05-09T20:40:51.895Z,68002.72
2024-05-09T20:43:37.062Z,68007.75
2024-05-09T20:46:22.669Z,68004.38
2024-05-09T20:49:08.599Z,67991.63
2024-05-09T20:51:54.115Z,68003.41
2024-05-09T20:54:39.563Z,67987.94
2024-05-09T20:57:25.189Z,67990.91
2024-05-09T21:00:15.383Z,67994.69
2024-05-09T21:03:04.855Z,67990.50
2024-05-09T21:05:50.716Z,67969.97
2024-05-09T21:08:36.440Z,67989.94
2024-05-09T21:11:23.071Z,67997.50
2024-05-09T21:14:08.652Z,67986.00
2024-05-09T21:16:54.226Z,67981.91
2024-05-09T21:19:39.432Z,67972.06
2024-05-09T21:22:25.262Z,67982.63
2024-05-09T21:25:11.008Z,67976.88
2024-05-09T21:27:56.557Z,67986.97
2024-05-09T21:30:43.215Z,67965.06
2024-05-09T21:33:28.927Z,67991.63
2024-05-09T21:36:14.376Z,67963.38
2024-05-09T21:38:59.428Z,67984.56
2024-05-09T21:41:45.228Z,67984.16
2024-05-09T21:44:30.585Z,67963.94
2024-05-09T21:47:16.057Z,67971.22
2024-05-09T21:50:01.694Z,67975.75
2024-05-09T21:52:47.007Z,67976.31
2024-05-09T21:55:32.178Z,67978.53
2024-05-09T21:58:26.580Z,67977.44
2024-05-09T22:01:13.573Z,67982.88
2024-05-09T22:03:59.205Z,67963.78
2024-05-09T22:06:44.612Z,67959.88
2024-05-09T22:09:29.726Z,67952.13
2024-05-09T22:12:14.999Z,67916.34
2024-05-09T22:15:00.345Z,67945.97
2024-05-09T22:17:46.156Z,67950.88
2024-05-09T22:20:37.149Z,67937.56
2024-05-09T22:23:24.526Z,67931.91
2024-05-09T22:26:09.857Z,67933.22
2024-05-09T22:28:55.497Z,67941.88
2024-05-09T22:31:40.992Z,67924.63
2024-05-09T22:34:26.713Z,67942.44
2024-05-09T22:37:12.506Z,67920.97
2024-05-09T22:39:58.000Z,67909.28
2024-05-09T22:42:43.589Z,67891.31
2024-05-09T22:45:29.145Z,67907.06
2024-05-09T22:48:14.952Z,67912.25
2024-05-09T22:51:00.823Z,67901.75
2024-05-09T22:53:45.871Z,67917.47
2024-05-09T22:56:31.475Z,67907.19
2024-05-09T22:59:18.086Z,67920.97
2024-05-09T23:02:03.958Z,67908.50
2024-05-09T23:04:49.543Z,67906.50
2024-05-09T23:07:34.775Z,67911.13
2024-05-09T23:10:27.492Z,67911.69
2024-05-09T23:13:17.848Z,67895.81
2024-05-09T23:16:03.523Z,67905.38
2024-05-09T23:18:48.966Z,67895.00
2024-05-09T23:21:38.672Z,67873.38
2024-05-09T23:24:24.016Z,67890.19
2024-05-09T23:27:09.777Z,67879.53
2024-05-09T23:29:55.268Z,67873.38
2024-05-09T23:32:40.661Z,67867.91
2024-05-09T23:35:26.602Z,67876.34
2024-05-09T23:38:12.498Z,67882.91
2024-05-09T23:40:58.349Z,67884.59
2024-05-09T23:43:43.614Z,67860.78
2024-05-09T23:46:29.450Z,67851.63
2024-05-09T23:49:15.025Z,67855.97
2024-05-09T23:52:00.539Z,67848.66
2024-05-09T23:54:46.849Z,67837.75
2024-05-09T23:57:32.588Z,67834.66
